Time;durP1;ratioP1;P1;durP2;ratioP2;P2;SDS_P1;SDS_P2;PMS_P1;PMS_P2;Temp;Humidity;BMP_temperature;BMP_pressure;BME280_temperature;BME280_humidity;BME280_pressure;Samples;Min_cycle;Max_cycle;Signal;HPM_P1;HPM_P2
2024/01/14 00:00:06;;;;;;;65.90;47.72;;;2.00;99.90;;;;;;5024484;28;20310;-72
2024/01/14 00:02:35;;;;;;;64.45;45.40;;;1.40;99.90;;;;;;5025746;28;20017;-72
2024/01/14 00:05:01;;;;;;;64.50;44.67;;;1.40;99.90;;;;;;5025572;28;20075;-73
2024/01/14 00:07:27;;;;;;;69.70;45.30;;;1.40;99.90;;;;;;5037904;28;20053;-72
2024/01/14 00:09:53;;;;;;;69.35;50.95;;;1.40;99.90;;;;;;5030565;28;20037;-73
2024/01/14 00:12:18;;;;;;;83.32;50.97;;;1.40;99.90;;;;;;5025543;28;20041;-73
2024/01/14 00:14:44;;;;;;;71.03;48.15;;;1.40;99.90;;;;;;5009336;28;20306;-72
2024/01/14 00:17:10;;;;;;;73.78;51.05;;;2.40;99.90;;;;;;5042862;28;20230;-73
2024/01/14 00:19:36;;;;;;;68.78;50.22;;;2.30;99.90;;;;;;5023735;28;20029;-73
2024/01/14 00:22:02;;;;;;;73.35;49.47;;;1.40;99.90;;;;;;5041745;28;20040;-74
2024/01/14 00:24:28;;;;;;;68.70;50.42;;;1.40;99.90;;;;;;5041739;28;20026;-72
2024/01/14 00:26:54;;;;;;;67.32;47.97;;;1.50;99.90;;;;;;5042733;28;20060;-72
2024/01/14 00:29:20;;;;;;;72.85;49.15;;;1.40;99.90;;;;;;5040919;28;20072;-73
2024/01/14 00:31:46;;;;;;;69.97;48.72;;;1.60;99.90;;;;;;5041704;28;20025;-73
2024/01/14 00:34:13;;;;;;;77.63;49.33;;;1.40;99.90;;;;;;5025255;28;20268;-74
2024/01/14 00:36:39;;;;;;;71.00;52.30;;;1.40;99.90;;;;;;5042956;28;20085;-72
2024/01/14 00:39:06;;;;;;;61.28;43.88;;;1.40;99.90;;;;;;5025775;28;20022;-73
2024/01/14 00:41:32;;;;;;;74.65;47.08;;;1.40;99.90;;;;;;5046874;28;20365;-72
2024/01/14 00:43:58;;;;;;;77.35;47.20;;;1.40;99.90;;;;;;5029575;28;20052;-72
2024/01/14 00:46:24;;;;;;;88.53;52.42;;;1.40;99.90;;;;;;5045227;28;20036;-74
2024/01/14 00:48:50;;;;;;;66.22;49.67;;;1.40;99.90;;;;;;5046680;28;20188;-74
2024/01/14 00:51:16;;;;;;;66.40;47.65;;;1.40;99.90;;;;;;5045359;28;20029;-72
2024/01/14 00:53:41;;;;;;;65.90;49.28;;;1.40;99.90;;;;;;4996591;28;20108;-72
2024/01/14 00:56:07;;;;;;;66.45;45.08;;;1.40;99.90;;;;;;5046676;28;20036;-73
2024/01/14 00:58:33;;;;;;;79.82;51.95;;;1.40;99.90;;;;;;5046523;28;20029;-73
2024/01/14 01:00:59;;;;;;;73.57;48.90;;;1.40;99.90;;;;;;5045225;28;20090;-72
2024/01/14 01:03:24;;;;;;;66.15;45.20;;;1.90;99.90;;;;;;5045076;28;20038;-73
2024/01/14 01:05:50;;;;;;;72.80;46.65;;;1.70;99.90;;;;;;5044941;28;20068;-73
2024/01/14 01:08:16;;;;;;;71.45;45.33;;;1.40;99.90;;;;;;5045988;28;20025;-74
2024/01/14 01:10:42;;;;;;;70.35;48.05;;;1.60;99.90;;;;;;5045155;28;20056;-73
2024/01/14 01:13:08;;;;;;;57.75;46.38;;;2.30;99.90;;;;;;5046216;28;20240;-72
2024/01/14 01:15:34;;;;;;;75.78;50.38;;;1.40;99.90;;;;;;5044913;28;20080;-73
2024/01/14 01:18:00;;;;;;;75.47;50.50;;;1.40;99.90;;;;;;5045068;28;20053;-73
2024/01/14 01:20:26;;;;;;;73.75;48.63;;;1.40;99.90;;;;;;5044185;28;20021;-72
2024/01/14 01:22:52;;;;;;;80.32;46.15;;;2.60;99.90;;;;;;5046260;28;20033;-72
2024/01/14 01:25:18;;;;;;;65.13;47.65;;;1.40;99.90;;;;;;5044730;28;20037;-73
2024/01/14 01:27:43;;;;;;;62.30;45.25;;;1.30;99.90;;;;;;5012143;28;20307;-73
2024/01/14 01:30:09;;;;;;;71.05;49.72;;;1.30;99.90;;;;;;5044733;28;20211;-73
2024/01/14 01:32:35;;;;;;;78.18;51.22;;;1.30;99.90;;;;;;5046001;28;20088;-72
2024/01/14 01:35:01;;;;;;;73.28;50.97;;;1.30;99.90;;;;;;5028233;28;20022;-73
2024/01/14 01:37:27;;;;;;;69.10;47.95;;;1.50;99.90;;;;;;5038985;28;20090;-72
2024/01/14 01:39:52;;;;;;;70.65;46.10;;;1.30;99.90;;;;;;5018730;28;20033;-72
2024/01/14 01:42:18;;;;;;;64.43;46.28;;;1.30;99.90;;;;;;5045755;28;20052;-73
2024/01/14 01:44:44;;;;;;;71.53;46.35;;;1.20;99.90;;;;;;5045305;28;20038;-73
2024/01/14 01:47:11;;;;;;;78.80;47.28;;;1.20;99.90;;;;;;5045712;28;20325;-72
2024/01/14 01:49:37;;;;;;;70.35;46.30;;;;;;;;;;5044019;28;20079;-72
2024/01/14 01:52:06;;;;;;;77.95;48.47;;;1.20;99.90;;;;;;5044972;28;20408;-73
2024/01/14 01:54:33;;;;;;;66.38;53.88;;;1.20;99.90;;;;;;5011473;28;20298;-74
2024/01/14 01:56:59;;;;;;;76.40;46.67;;;1.20;99.90;;;;;;5044189;28;20345;-75
2024/01/14 01:59:26;;;;;;;66.20;49.47;;;1.20;99.90;;;;;;5026743;28;20010;-72
2024/01/14 02:01:56;;;;;;;73.97;49.42;;;1.20;99.90;;;;;;5028729;28;20028;-72
2024/01/14 02:04:25;;;;;;;73.03;49.25;;;1.20;99.90;;;;;;5045159;28;20364;-72
2024/01/14 02:06:51;;;;;;;63.33;46.88;;;1.20;99.90;;;;;;5027588;28;20333;-73
2024/01/14 02:09:17;;;;;;;70.22;49.38;;;1.20;99.90;;;;;;5042895;28;20064;-72
2024/01/14 02:11:43;;;;;;;73.93;50.33;;;1.80;99.90;;;;;;5045235;28;20021;-72
2024/01/14 02:14:09;;;;;;;72.95;44.88;;;1.30;99.90;;;;;;5045137;28;20048;-74
2024/01/14 02:16:35;;;;;;;77.32;49.17;;;1.30;99.90;;;;;;5027493;28;20302;-73
2024/01/14 02:19:01;;;;;;;63.33;48.63;;;1.30;99.90;;;;;;5010300;28;20366;-73
2024/01/14 02:21:36;;;;;;;76.93;49.38;;;1.30;99.90;;;;;;5044970;28;20303;-72
2024/01/14 02:24:26;;;;;;;72.38;46.35;;;1.30;99.90;;;;;;5045247;28;20025;-73
2024/01/14 02:26:52;;;;;;;71.03;48.70;;;1.30;99.90;;;;;;5044587;28;20038;-72
2024/01/14 02:29:19;;;;;;;76.30;47.40;;;1.30;99.90;;;;;;5043833;28;20247;-73
2024/01/14 02:31:45;;;;;;;66.45;47.92;;;2.00;99.90;;;;;;5043697;28;20083;-73
2024/01/14 02:34:12;;;;;;;84.00;56.42;;;1.30;99.90;;;;;;5044962;28;20092;-73
2024/01/14 02:36:38;;;;;;;73.88;46.83;;;1.20;99.90;;;;;;5044583;28;20040;-72
2024/01/14 02:39:06;;;;;;;82.50;49.85;;;1.20;99.90;;;;;;5042832;28;20021;-73
2024/01/14 02:41:34;;;;;;;73.97;45.58;;;1.20;99.90;;;;;;5044848;28;20063;-72
2024/01/14 02:44:00;;;;;;;61.20;46.75;;;1.20;99.90;;;;;;5044829;28;20029;-73
2024/01/14 02:46:28;;;;;;;75.22;51.47;;;1.20;99.90;;;;;;5043476;28;20041;-72
2024/01/14 02:48:53;;;;;;;73.40;49.85;;;1.20;99.90;;;;;;5036017;28;20033;-72
2024/01/14 02:51:19;;;;;;;73.97;48.78;;;1.20;99.90;;;;;;5026819;28;20033;-72
2024/01/14 02:53:45;;;;;;;66.85;45.15;;;1.20;99.90;;;;;;5043257;28;20040;-74
2024/01/14 02:56:11;;;;;;;81.60;51.90;;;1.10;99.90;;;;;;5043049;28;20310;-72
2024/01/14 02:58:38;;;;;;;60.53;42.72;;;1.10;99.90;;;;;;5044481;28;20214;-72
2024/01/14 03:01:04;;;;;;;76.82;51.42;;;1.10;99.90;;;;;;5041663;28;20079;-73
2024/01/14 03:03:30;;;;;;;66.32;44.25;;;1.10;99.90;;;;;;5042515;28;20024;-73
2024/01/14 03:05:56;;;;;;;74.95;49.67;;;1.20;99.90;;;;;;5026271;28;20037;-73
2024/01/14 03:08:21;;;;;;;68.63;44.70;;;1.20;99.90;;;;;;5043856;28;20040;-73
2024/01/14 03:10:48;;;;;;;62.70;46.28;;;1.10;99.90;;;;;;5024967;28;20025;-73
2024/01/14 03:13:15;;;;;;;67.55;50.92;;;1.20;99.90;;;;;;5044442;28;20025;-72
2024/01/14 03:15:44;;;;;;;72.78;49.75;;;1.20;99.90;;;;;;5043964;28;20025;-72
2024/01/14 03:18:15;;;;;;;44.83;32.90;;;1.20;99.90;;;;;;5026397;28;20085;-74
2024/01/14 03:20:42;;;;;;;66.38;46.60;;;1.20;99.90;;;;;;5042761;28;20025;-72
2024/01/14 03:23:08;;;;;;;64.43;48.83;;;2.20;99.90;;;;;;5043667;28;20329;-72
2024/01/14 03:25:34;;;;;;;79.72;46.28;;;1.20;99.90;;;;;;5043848;28;20107;-74
2024/01/14 03:28:00;;;;;;;72.15;47.42;;;1.40;99.90;;;;;;5009948;28;20033;-73
2024/01/14 03:30:26;;;;;;;64.50;45.55;;;1.10;99.90;;;;;;5042604;28;20021;-72
2024/01/14 03:32:52;;;;;;;67.65;46.95;;;1.40;99.90;;;;;;5042400;28;20033;-72
2024/01/14 03:35:19;;;;;;;62.25;45.05;;;1.00;99.90;;;;;;5026063;28;20034;-73
2024/01/14 03:37:45;;;;;;;62.13;46.05;;;1.00;99.90;;;;;;5042252;28;20025;-72
2024/01/14 03:40:11;;;;;;;60.00;42.40;;;1.00;99.90;;;;;;5008338;28;20139;-72
2024/01/14 03:42:37;;;;;;;64.03;45.22;;;1.00;99.90;;;;;;5025608;28;20025;-72
2024/01/14 03:45:04;;;;;;;68.93;48.05;;;0.90;99.90;;;;;;5042452;28;20096;-74
2024/01/14 03:47:29;;;;;;;67.47;45.90;;;0.90;99.90;;;;;;5043739;28;20025;-73
2024/01/14 03:49:55;;;;;;;58.22;42.75;;;0.90;99.90;;;;;;5040915;28;20060;-72
2024/01/14 03:52:22;;;;;;;74.47;48.35;;;0.90;99.90;;;;;;5041611;28;20017;-73
2024/01/14 03:54:48;;;;;;;74.68;43.58;;;0.90;99.90;;;;;;5025565;28;20234;-72
2024/01/14 03:57:13;;;;;;;74.25;47.72;;;0.80;99.90;;;;;;5043431;28;20082;-72
2024/01/14 03:59:39;;;;;;;63.83;44.63;;;0.80;99.90;;;;;;5041192;28;20218;-73
2024/01/14 04:02:06;;;;;;;64.32;45.58;;;0.80;99.90;;;;;;5043251;28;20079;-73
2024/01/14 04:04:32;;;;;;;79.22;47.47;;;0.80;99.90;;;;;;5043014;28;20034;-72
2024/01/14 04:06:58;;;;;;;71.78;45.58;;;0.80;99.90;;;;;;5043389;28;20059;-73
2024/01/14 04:09:24;;;;;;;66.00;46.80;;;0.80;99.90;;;;;;5041430;28;20210;-73
2024/01/14 04:11:50;;;;;;;59.92;41.28;;;0.80;99.90;;;;;;5043271;28;20033;-73
2024/01/14 04:14:15;;;;;;;71.50;44.70;;;0.80;99.90;;;;;;5043050;28;20246;-72
2024/01/14 04:16:41;;;;;;;64.57;43.65;;;0.70;99.90;;;;;;5042997;28;20024;-72
2024/01/14 04:19:08;;;;;;;67.20;44.22;;;0.80;99.90;;;;;;5024783;28;20307;-73
2024/01/14 04:21:34;;;;;;;77.60;47.00;;;0.80;99.90;;;;;;5009099;28;20344;-74
2024/01/14 04:24:03;;;;;;;66.57;47.30;;;0.80;99.90;;;;;;5009225;28;20036;-72
2024/01/14 04:26:30;;;;;;;62.78;47.90;;;;;;;;;;5008882;28;20286;-73
2024/01/14 04:28:56;;;;;;;74.20;46.85;;;0.80;99.90;;;;;;5042030;28;20026;-73
2024/01/14 04:31:22;;;;;;;79.90;48.45;;;2.00;99.90;;;;;;5008812;28;20029;-72
2024/01/14 04:33:49;;;;;;;79.18;47.20;;;0.80;99.90;;;;;;5041660;28;20117;-72
2024/01/14 04:36:15;;;;;;;74.45;52.17;;;0.80;99.90;;;;;;5042601;28;20021;-72
2024/01/14 04:38:42;;;;;;;67.18;44.92;;;1.90;99.90;;;;;;5041651;28;20045;-74
2024/01/14 04:41:08;;;;;;;67.60;46.40;;;0.80;99.90;;;;;;5040605;28;20013;-72
2024/01/14 04:43:35;;;;;;;75.45;44.58;;;0.80;99.90;;;;;;5025297;28;20272;-72
2024/01/14 04:46:01;;;;;;;75.47;47.83;;;0.80;99.90;;;;;;5041571;28;20279;-73
2024/01/14 04:48:27;;;;;;;63.53;44.05;;;0.90;99.90;;;;;;5042678;28;20068;-73
2024/01/14 04:50:53;;;;;;;59.30;40.78;;;1.60;99.90;;;;;;5041388;28;20338;-73
2024/01/14 04:53:19;;;;;;;67.25;42.40;;;0.80;99.90;;;;;;5042828;28;20029;-72
2024/01/14 04:55:45;;;;;;;75.95;48.50;;;0.80;99.90;;;;;;5042519;28;20021;-72
2024/01/14 04:58:11;;;;;;;66.72;43.38;;;0.80;99.90;;;;;;5024813;28;20093;-73
2024/01/14 05:00:37;;;;;;;57.47;40.47;;;0.70;99.90;;;;;;5040469;28;20030;-72
2024/01/14 05:03:03;;;;;;;71.53;44.25;;;2.00;99.90;;;;;;5041624;28;20218;-72
2024/01/14 05:05:29;;;;;;;56.90;43.38;;;0.80;99.90;;;;;;5042311;28;20041;-73
2024/01/14 05:07:55;;;;;;;75.40;43.72;;;0.80;99.90;;;;;;5042801;28;20029;-73
2024/01/14 05:10:21;;;;;;;70.25;43.78;;;0.70;99.90;;;;;;5039790;28;20254;-73
2024/01/14 05:12:47;;;;;;;70.47;44.60;;;0.70;99.90;;;;;;5042484;28;20079;-72
2024/01/14 05:15:13;;;;;;;70.00;43.30;;;1.50;99.90;;;;;;5016161;28;20266;-73
2024/01/14 05:17:39;;;;;;;67.13;45.03;;;0.70;99.90;;;;;;5024960;28;20026;-72
2024/01/14 05:20:06;;;;;;;71.93;42.30;;;1.00;99.90;;;;;;5023775;28;20028;-72
2024/01/14 05:22:32;;;;;;;72.55;43.97;;;0.70;99.90;;;;;;5042406;28;20033;-72
2024/01/14 05:24:58;;;;;;;73.90;45.75;;;0.60;99.90;;;;;;5043202;28;20025;-72
2024/01/14 05:27:24;;;;;;;63.25;41.70;;;0.60;99.90;;;;;;5027957;28;20035;-72
2024/01/14 05:29:50;;;;;;;59.83;40.90;;;0.60;99.90;;;;;;5011072;28;20016;-74
2024/01/14 05:32:16;;;;;;;67.95;44.85;;;0.50;99.90;;;;;;5028627;28;20296;-72
2024/01/14 05:34:44;;;;;;;69.25;42.35;;;0.60;99.90;;;;;;5046068;28;20025;-72
2024/01/14 05:37:10;;;;;;;64.18;43.83;;;0.50;99.90;;;;;;5011888;28;20194;-73
2024/01/14 05:39:37;;;;;;;70.72;45.78;;;1.10;99.90;;;;;;5023312;28;20053;-72
2024/01/14 05:42:03;;;;;;;68.07;43.60;;;0.60;99.90;;;;;;5043628;28;20044;-72
2024/01/14 05:44:33;;;;;;;72.85;42.25;;;0.60;99.90;;;;;;5011022;28;20029;-74
2024/01/14 05:46:59;;;;;;;68.95;40.60;;;0.60;99.90;;;;;;5028334;28;20113;-74
2024/01/14 05:49:25;;;;;;;65.05;42.35;;;0.80;99.90;;;;;;5035125;28;20026;-72
2024/01/14 05:51:51;;;;;;;71.78;41.80;;;2.00;99.90;;;;;;5044637;28;20026;-74
2024/01/14 05:54:17;;;;;;;72.22;43.20;;;0.60;99.90;;;;;;5044375;28;20028;-73
2024/01/14 05:56:43;;;;;;;66.22;39.03;;;0.60;99.90;;;;;;5040030;28;20030;-73
2024/01/14 05:59:09;;;;;;;68.82;42.88;;;0.60;99.90;;;;;;5022909;28;20030;-78
2024/01/14 06:01:35;;;;;;;91.72;47.75;;;1.50;99.90;;;;;;5034973;28;20210;-72
2024/01/14 06:04:01;;;;;;;65.88;41.83;;;0.60;99.90;;;;;;5044894;28;20076;-73
2024/01/14 06:06:27;;;;;;;64.78;39.80;;;1.20;99.90;;;;;;5044671;28;20223;-73
2024/01/14 06:08:53;;;;;;;72.47;43.15;;;1.60;99.90;;;;;;5042352;28;20035;-75
2024/01/14 06:11:19;;;;;;;67.68;41.15;;;0.60;99.90;;;;;;5043628;28;20024;-73
2024/01/14 06:13:45;;;;;;;69.97;42.80;;;0.60;99.90;;;;;;5044416;28;20025;-72
2024/01/14 06:16:11;;;;;;;69.47;45.22;;;0.70;99.90;;;;;;5044395;28;20052;-73
2024/01/14 06:18:39;;;;;;;78.03;46.75;;;0.60;99.90;;;;;;5044579;28;20021;-75
2024/01/14 06:21:04;;;;;;;72.70;45.08;;;0.70;99.90;;;;;;5025592;28;20358;-76
2024/01/14 06:23:30;;;;;;;67.25;42.60;;;1.20;99.90;;;;;;5044532;28;20036;-74
2024/01/14 06:25:56;;;;;;;69.68;42.67;;;0.70;99.90;;;;;;5043890;28;20052;-74
2024/01/14 06:28:22;;;;;;;76.72;48.85;;;0.70;99.90;;;;;;5043979;28;20024;-75
2024/01/14 06:30:48;;;;;;;67.85;44.10;;;0.60;99.90;;;;;;5043337;28;20143;-74
2024/01/14 06:33:14;;;;;;;77.28;41.60;;;0.60;99.90;;;;;;5026776;28;20207;-72
2024/01/14 06:35:40;;;;;;;69.82;42.92;;;1.50;99.90;;;;;;5043129;28;20030;-72
2024/01/14 06:38:10;;;;;;;52.50;36.65;;;0.60;99.90;;;;;;5042052;28;20040;-72
2024/01/14 06:40:37;;;;;;;59.58;40.92;;;0.70;99.90;;;;;;5008584;28;20071;-72
2024/01/14 06:43:03;;;;;;;86.30;49.22;;;0.70;99.90;;;;;;5043787;28;20025;-72
2024/01/14 06:45:29;;;;;;;79.32;48.10;;;0.70;99.90;;;;;;5029121;28;20067;-76
2024/01/14 06:47:55;;;;;;;77.97;47.40;;;0.70;99.90;;;;;;5040444;28;20037;-77
2024/01/14 06:50:21;;;;;;;75.85;48.22;;;0.70;99.90;;;;;;5023996;28;20298;-72
2024/01/14 06:52:46;;;;;;;85.95;53.85;;;0.70;99.90;;;;;;5042744;28;20311;-72
2024/01/14 06:55:13;;;;;;;80.65;47.00;;;0.70;99.90;;;;;;5026411;28;20033;-71
2024/01/14 06:57:39;;;;;;;101.10;52.72;;;0.80;99.90;;;;;;5044199;28;20049;-72
2024/01/14 07:00:07;;;;;;;85.97;51.85;;;0.70;99.90;;;;;;4999268;28;20055;-71
2024/01/14 07:02:33;;;;;;;74.70;49.75;;;0.70;99.90;;;;;;5026181;28;20042;-71
2024/01/14 07:04:59;;;;;;;69.90;41.00;;;0.70;99.90;;;;;;5025565;28;20282;-71
2024/01/14 07:07:25;;;;;;;72.28;43.95;;;0.60;99.90;;;;;;5043144;28;20254;-71
2024/01/14 07:09:51;;;;;;;74.30;43.17;;;0.60;99.90;;;;;;5041345;28;20063;-71
2024/01/14 07:12:17;;;;;;;76.35;43.63;;;0.60;99.90;;;;;;5025960;28;20037;-74
2024/01/14 07:14:42;;;;;;;67.47;40.22;;;0.60;99.90;;;;;;5014063;28;20022;-70
2024/01/14 07:17:08;;;;;;;68.07;41.92;;;0.60;99.90;;;;;;5038491;28;20050;-71
2024/01/14 07:19:37;;;;;;;64.65;41.10;;;0.60;99.90;;;;;;5024850;28;20028;-70
2024/01/14 07:22:06;;;;;;;69.60;43.53;;;0.60;99.90;;;;;;5023638;28;20029;-70
2024/01/14 07:24:33;;;;;;;65.93;42.13;;;0.60;99.90;;;;;;5023176;28;20287;-70
2024/01/14 07:27:01;;;;;;;68.95;42.53;;;1.40;99.90;;;;;;5021656;28;20030;-70
2024/01/14 07:29:28;;;;;;;71.07;46.13;;;0.60;99.90;;;;;;5015118;28;20026;-69
2024/01/14 07:31:53;;;;;;;65.43;41.65;;;0.60;99.90;;;;;;5026558;28;20019;-70
2024/01/14 07:34:20;;;;;;;80.18;42.92;;;1.10;99.90;;;;;;5027199;28;20033;-70
2024/01/14 07:36:46;;;;;;;67.68;42.75;;;0.60;99.90;;;;;;5039682;28;20101;-70
2024/01/14 07:39:12;;;;;;;72.93;44.40;;;0.60;99.90;;;;;;5041149;28;20033;-70
2024/01/14 07:41:39;;;;;;;73.20;45.10;;;0.60;99.90;;;;;;5024732;28;20017;-70
2024/01/14 07:44:09;;;;;;;110.85;69.18;;;0.70;99.90;;;;;;5010920;28;20030;-70
2024/01/14 07:46:35;;;;;;;85.95;52.10;;;0.60;99.90;;;;;;5022497;28;20051;-70
2024/01/14 07:49:00;;;;;;;87.05;45.22;;;0.60;99.90;;;;;;5024178;28;20092;-70
2024/01/14 07:51:26;;;;;;;76.15;53.03;;;0.60;99.90;;;;;;5040232;28;20053;-70
2024/01/14 07:53:52;;;;;;;67.25;42.25;;;0.60;99.90;;;;;;5024860;28;20581;-70
2024/01/14 07:56:20;;;;;;;85.00;46.40;;;0.60;99.90;;;;;;5041248;28;20033;-70
2024/01/14 07:58:45;;;;;;;83.18;47.78;;;0.60;99.90;;;;;;5024414;28;20333;-70
2024/01/14 08:01:11;;;;;;;68.43;45.22;;;0.60;99.90;;;;;;5007322;28;20029;-71
2024/01/14 08:03:37;;;;;;;90.68;59.50;;;0.60;99.90;;;;;;5042039;28;20029;-70
2024/01/14 08:06:04;;;;;;;74.75;48.50;;;0.60;99.90;;;;;;5024824;28;20048;-70
2024/01/14 08:08:29;;;;;;;97.50;66.35;;;0.60;99.90;;;;;;5040727;28;20306;-71
2024/01/14 08:10:55;;;;;;;66.72;41.97;;;1.70;99.90;;;;;;5012668;28;20033;-69
2024/01/14 08:13:21;;;;;;;69.60;45.80;;;0.60;99.90;;;;;;5030913;28;20330;-69
2024/01/14 08:15:47;;;;;;;76.40;45.30;;;0.60;99.90;;;;;;5011460;28;20204;-70
2024/01/14 08:18:13;;;;;;;69.82;42.95;;;0.60;99.90;;;;;;5019846;28;20203;-70
2024/01/14 08:20:39;;;;;;;69.30;41.30;;;0.60;99.90;;;;;;5040192;28;20030;-70
2024/01/14 08:23:05;;;;;;;64.38;41.78;;;0.60;99.90;;;;;;5007069;28;20089;-71
2024/01/14 08:25:31;;;;;;;71.93;42.80;;;0.50;99.90;;;;;;5022473;28;20127;-70
2024/01/14 08:27:57;;;;;;;86.68;43.53;;;1.50;99.90;;;;;;5020417;28;20030;-70
2024/01/14 08:30:22;;;;;;;57.55;42.30;;;0.50;99.90;;;;;;5012836;28;20222;-71
2024/01/14 08:32:49;;;;;;;75.97;42.20;;;0.50;99.90;;;;;;5029986;28;20088;-70
2024/01/14 08:35:15;;;;;;;66.60;39.85;;;0.50;99.90;;;;;;5022551;28;20053;-70
2024/01/14 08:37:46;;;;;;;67.63;35.92;;;0.50;99.90;;;;;;5021429;28;20010;-70
2024/01/14 08:40:15;;;;;;;75.97;39.30;;;0.50;99.90;;;;;;5012254;28;20325;-71
2024/01/14 08:42:44;;;;;;;57.78;34.70;;;0.60;99.90;;;;;;5008093;28;20005;-72
2024/01/14 08:45:13;;;;;;;65.38;42.88;;;0.50;99.90;;;;;;5020889;28;20215;-71
2024/01/14 08:47:40;;;;;;;46.67;30.63;;;0.70;99.90;;;;;;5021342;28;20030;-71
2024/01/14 08:50:09;;;;;;;67.30;40.78;;;0.50;99.90;;;;;;5028151;28;20040;-70
2024/01/14 08:52:36;;;;;;;63.08;37.53;;;0.60;99.90;;;;;;5030523;28;20026;-70
2024/01/14 08:55:04;;;;;;;68.05;41.67;;;0.60;99.90;;;;;;5020673;28;20034;-69
2024/01/14 08:57:30;;;;;;;50.67;39.97;;;0.60;99.90;;;;;;5029263;28;20041;-72
2024/01/14 08:59:57;;;;;;;57.25;35.10;;;0.60;99.90;;;;;;5021184;28;20226;-70
2024/01/14 09:02:23;;;;;;;54.63;32.78;;;1.70;99.90;;;;;;5021895;28;20052;-70
2024/01/14 09:04:48;;;;;;;58.63;36.22;;;0.70;99.90;;;;;;5028213;28;20085;-70
2024/01/14 09:07:14;;;;;;;60.92;36.97;;;0.60;99.90;;;;;;5043123;28;20361;-72
2024/01/14 09:09:40;;;;;;;63.42;40.05;;;0.70;99.90;;;;;;5042970;28;20048;-70
2024/01/14 09:12:07;;;;;;;55.15;35.97;;;0.80;99.90;;;;;;5015372;28;20034;-71
2024/01/14 09:14:33;;;;;;;54.70;35.15;;;0.70;99.90;;;;;;5025647;28;20017;-70
2024/01/14 09:16:58;;;;;;;53.47;34.75;;;1.70;99.90;;;;;;5025843;28;20041;-71
2024/01/14 09:19:24;;;;;;;60.50;35.88;;;0.60;99.90;;;;;;5041610;28;20029;-71
2024/01/14 09:21:51;;;;;;;51.88;37.40;;;0.60;99.90;;;;;;4993395;28;20325;-70
2024/01/14 09:24:17;;;;;;;54.17;33.42;;;0.60;99.90;;;;;;5027774;28;20025;-70
2024/01/14 09:26:43;;;;;;;51.10;34.58;;;0.50;99.90;;;;;;5043169;28;20036;-72
2024/01/14 09:29:08;;;;;;;53.00;33.40;;;0.50;99.90;;;;;;5026425;28;20192;-71
2024/01/14 09:31:34;;;;;;;58.72;37.58;;;0.50;99.90;;;;;;5024551;28;20064;-71
2024/01/14 09:34:00;;;;;;;45.38;30.58;;;0.70;99.90;;;;;;5040991;28;20140;-71
2024/01/14 09:36:27;;;;;;;48.78;31.58;;;0.50;99.90;;;;;;5042983;28;20336;-71
2024/01/14 09:38:53;;;;;;;55.13;35.97;;;0.50;99.90;;;;;;5044351;28;20045;-71
2024/01/14 09:41:38;;;;;;;54.05;34.20;;;1.00;99.90;;;;;;5041362;28;20025;-71
2024/01/14 09:44:05;;;;;;;52.13;35.42;;;0.60;99.90;;;;;;5042526;28;20033;-71
2024/01/14 09:46:31;;;;;;;50.63;32.47;;;1.50;99.90;;;;;;5044706;28;20048;-71
2024/01/14 09:48:58;;;;;;;55.40;37.33;;;0.60;99.90;;;;;;5024986;28;20029;-71
2024/01/14 09:51:32;;;;;;;51.85;33.15;;;0.60;99.90;;;;;;5042887;28;20022;-70
2024/01/14 09:54:01;;;;;;;64.22;38.08;;;0.70;99.90;;;;;;5033481;28;20021;-71
2024/01/14 09:56:30;;;;;;;55.50;38.72;;;0.60;99.90;;;;;;5043214;28;20026;-71
2024/01/14 09:58:57;;;;;;;57.83;34.13;;;0.60;99.90;;;;;;5044211;28;20030;-71
2024/01/14 10:01:30;;;;;;;74.32;39.08;;;0.70;99.90;;;;;;5041593;28;20056;-71
2024/01/14 10:04:01;;;;;;;51.00;35.08;;;0.70;99.90;;;;;;5040389;28;20022;-72
2024/01/14 10:06:28;;;;;;;62.40;39.25;;;0.70;99.90;;;;;;5043177;28;20075;-70
2024/01/14 10:08:55;;;;;;;60.88;36.30;;;0.70;99.90;;;;;;5042280;28;20038;-75
2024/01/14 10:11:21;;;;;;;62.28;37.25;;;0.80;99.90;;;;;;5040755;28;20033;-72
2024/01/14 10:13:51;;;;;;;53.17;33.17;;;0.80;99.90;;;;;;5025674;28;20056;-76
2024/01/14 10:16:17;;;;;;;41.60;29.42;;;1.30;99.90;;;;;;5044605;28;20087;-71
2024/01/14 10:18:44;;;;;;;48.50;34.17;;;0.80;99.90;;;;;;5026056;28;20127;-71
2024/01/14 10:21:10;;;;;;;63.67;36.95;;;0.80;99.90;;;;;;5039878;28;20330;-73
2024/01/14 10:23:36;;;;;;;58.35;35.55;;;0.80;99.90;;;;;;5040213;28;20033;-71
2024/01/14 10:26:02;;;;;;;56.60;34.40;;;0.90;99.90;;;;;;5042288;28;20321;-73
2024/01/14 10:28:35;;;;;;;51.92;33.63;;;0.90;99.90;;;;;;5043023;28;20021;-71
2024/01/14 10:31:04;;;;;;;60.72;38.78;;;0.90;99.90;;;;;;5041369;28;20082;-69
2024/01/14 10:33:35;;;;;;;69.30;37.42;;;0.90;99.90;;;;;;5041733;28;20021;-71
2024/01/14 10:36:06;;;;;;;63.08;35.92;;;0.80;99.90;;;;;;5025663;28;20311;-71
2024/01/14 10:38:32;;;;;;;51.30;35.95;;;0.90;99.90;;;;;;5041098;28;20620;-72
2024/01/14 10:40:58;;;;;;;61.55;34.30;;;0.90;99.90;;;;;;5042804;28;20033;-69
2024/01/14 10:43:26;;;;;;;58.15;38.25;;;0.90;99.90;;;;;;5024138;28;20018;-73
2024/01/14 10:45:52;;;;;;;52.45;34.70;;;0.90;99.90;;;;;;5020960;28;20042;-71
2024/01/14 10:48:26;;;;;;;55.80;38.75;;;0.90;99.90;;;;;;5040559;28;20107;-74
2024/01/14 10:50:59;;;;;;;55.45;36.65;;;0.90;99.90;;;;;;5021872;28;20033;-71
2024/01/14 10:53:33;;;;;;;58.13;36.97;;;0.90;99.90;;;;;;5043257;28;20060;-72
2024/01/14 10:56:04;;;;;;;66.82;38.55;;;1.60;99.90;;;;;;5025944;28;20161;-72
2024/01/14 10:58:35;;;;;;;61.38;43.03;;;1.00;99.90;;;;;;5043181;28;20033;-71
2024/01/14 11:01:06;;;;;;;64.82;40.15;;;1.00;99.90;;;;;;5042042;28;20222;-71
2024/01/14 11:03:33;;;;;;;59.10;37.22;;;1.10;99.90;;;;;;5043494;28;20294;-71
2024/01/14 11:06:00;;;;;;;60.10;37.88;;;1.40;99.90;;;;;;5042756;28;20041;-71
2024/01/14 11:08:27;;;;;;;62.00;40.42;;;1.10;99.90;;;;;;5025757;28;20025;-71
2024/01/14 11:10:54;;;;;;;62.80;35.45;;;1.20;99.90;;;;;;5041381;28;20025;-72
2024/01/14 11:13:23;;;;;;;45.97;35.47;;;1.10;99.90;;;;;;5041234;28;20091;-72
2024/01/14 11:16:08;;;;;;;48.65;34.38;;;1.10;99.90;;;;;;5019643;28;20052;-71
2024/01/14 11:18:40;;;;;;;46.88;32.15;;;1.10;99.90;;;;;;5013199;28;20022;-73
2024/01/14 11:21:39;;;;;;;55.50;36.00;;;1.10;99.90;;;;;;5021341;28;20021;-73
2024/01/14 11:24:06;;;;;;;55.78;35.10;;;1.10;99.90;;;;;;5006672;28;20105;-73
2024/01/14 11:26:32;;;;;;;43.20;31.23;;;1.00;99.90;;;;;;5041808;28;20047;-71
2024/01/14 11:29:03;;;;;;;64.15;42.17;;;1.00;99.90;;;;;;5042224;28;20056;-72
2024/01/14 11:32:03;;;;;;;49.45;34.17;;;1.00;99.90;;;;;;5039797;28;20365;-71
2024/01/14 11:34:47;;;;;;;63.10;42.60;;;0.90;99.90;;;;;;5021805;28;20025;-72
2024/01/14 11:37:34;;;;;;;51.85;40.88;;;0.90;99.90;;;;;;5024867;28;20196;-73
2024/01/14 11:40:06;;;;;;;66.22;44.78;;;1.00;99.90;;;;;;5022205;28;20026;-73
2024/01/14 11:42:33;;;;;;;55.05;36.50;;;0.90;99.90;;;;;;5024284;28;20034;-72
2024/01/14 11:45:24;;;;;;;53.15;38.70;;;0.90;99.90;;;;;;5041124;28;20096;-72
2024/01/14 11:47:51;;;;;;;48.67;35.53;;;1.00;99.90;;;;;;5012616;28;20044;-74
2024/01/14 11:50:18;;;;;;;58.88;39.58;;;1.00;99.90;;;;;;5013827;28;20040;-70
2024/01/14 11:52:49;;;;;;;59.78;35.42;;;1.00;99.90;;;;;;5039365;28;20075;-73
2024/01/14 11:55:23;;;;;;;53.47;33.55;;;1.70;99.90;;;;;;5028076;28;20025;-72
2024/01/14 11:57:49;;;;;;;56.33;35.65;;;2.30;99.90;;;;;;5041507;28;20353;-74
2024/01/14 12:00:18;;;;;;;52.20;32.97;;;1.10;99.90;;;;;;5022111;28;20037;-73
2024/01/14 12:02:44;;;;;;;51.45;36.50;;;1.00;99.90;;;;;;5023588;28;20037;-72
2024/01/14 12:05:21;;;;;;;50.17;32.28;;;1.10;99.90;;;;;;5040929;28;20033;-73
2024/01/14 12:07:48;;;;;;;49.88;28.83;;;1.00;99.90;;;;;;5040061;28;20041;-73
2024/01/14 12:10:15;;;;;;;37.22;28.55;;;1.10;99.90;;;;;;5038264;28;20017;-73
2024/01/14 12:12:41;;;;;;;46.13;30.70;;;1.10;99.90;;;;;;5040839;28;20032;-72
2024/01/14 12:15:09;;;;;;;50.65;31.88;;;1.10;99.90;;;;;;5040506;28;20079;-72
2024/01/14 12:17:35;;;;;;;39.83;27.90;;;1.10;99.90;;;;;;5004226;28;20026;-73
2024/01/14 12:20:04;;;;;;;41.28;28.02;;;1.10;99.90;;;;;;5036070;28;20067;-74
2024/01/14 12:22:31;;;;;;;39.65;27.30;;;1.10;99.90;;;;;;5020776;28;20034;-74
2024/01/14 12:24:57;;;;;;;43.53;30.05;;;1.10;99.90;;;;;;5022735;28;20025;-73
2024/01/14 12:27:25;;;;;;;40.83;27.05;;;1.20;99.90;;;;;;5023332;28;20218;-74
2024/01/14 12:29:51;;;;;;;38.47;26.17;;;1.20;99.90;;;;;;5037794;28;20022;-74
2024/01/14 12:32:17;;;;;;;39.17;25.73;;;1.10;99.90;;;;;;5014187;28;20140;-72
2024/01/14 12:34:43;;;;;;;41.78;31.67;;;1.10;99.90;;;;;;5008756;28;20396;-74
2024/01/14 12:37:12;;;;;;;39.83;26.70;;;1.30;99.90;;;;;;5044414;28;20254;-74